sensor_id;sensor_type;location;lat;lon;timestamp;temperature;humidity
5980;DHT22;3016;50.308;8.258;2023-01-23T00:02:10;0.70;1.00
5980;DHT22;3016;50.308;8.258;2023-01-23T00:05:11;0.80;1.00
5980;DHT22;3016;50.308;8.258;2023-01-23T00:08:11;0.80;1.00
5980;DHT22;3016;50.308;8.258;2023-01-23T00:11:14;0.90;1.00
5980;DHT22;3016;50.308;8.258;2023-01-23T00:14:16;0.80;1.00
5980;DHT22;3016;50.308;8.258;2023-01-23T00:17:17;0.80;1.00
5980;DHT22;3016;50.308;8.258;2023-01-23T00:20:18;0.80;1.00
5980;DHT22;3016;50.308;8.258;2023-01-23T00:23:19;0.80;1.00
5980;DHT22;3016;50.308;8.258;2023-01-23T00:26:25;0.80;1.00
5980;DHT22;3016;50.308;8.258;2023-01-23T00:29:27;0.90;1.00
5980;DHT22;3016;50.308;8.258;2023-01-23T00:32:28;0.90;1.00
5980;DHT22;3016;50.308;8.258;2023-01-23T00:35:28;0.90;1.00
5980;DHT22;3016;50.308;8.258;2023-01-23T00:38:29;0.90;1.00
5980;DHT22;3016;50.308;8.258;2023-01-23T00:41:30;0.80;1.00
5980;DHT22;3016;50.308;8.258;2023-01-23T00:44:30;0.80;1.00
5980;DHT22;3016;50.308;8.258;2023-01-23T00:47:31;0.80;1.00
5980;DHT22;3016;50.308;8.258;2023-01-23T00:50:32;0.80;1.00
5980;DHT22;3016;50.308;8.258;2023-01-23T00:53:32;0.90;1.00
5980;DHT22;3016;50.308;8.258;2023-01-23T00:56:33;0.90;1.00
5980;DHT22;3016;50.308;8.258;2023-01-23T00:59:34;0.80;1.00
5980;DHT22;3016;50.308;8.258;2023-01-23T01:02:34;0.80;1.00
5980;DHT22;3016;50.308;8.258;2023-01-23T01:05:35;0.80;1.00
5980;DHT22;3016;50.308;8.258;2023-01-23T01:08:36;0.80;1.00
5980;DHT22;3016;50.308;8.258;2023-01-23T01:11:37;0.80;1.00
5980;DHT22;3016;50.308;8.258;2023-01-23T01:14:37;0.80;1.00
5980;DHT22;3016;50.308;8.258;2023-01-23T01:17:38;0.80;1.00
5980;DHT22;3016;50.308;8.258;2023-01-23T01:20:40;0.80;1.00
5980;DHT22;3016;50.308;8.258;2023-01-23T01:23:42;0.80;1.00
5980;DHT22;3016;50.308;8.258;2023-01-23T01:26:43;0.80;1.00
5980;DHT22;3016;50.308;8.258;2023-01-23T01:29:43;0.80;1.00
5980;DHT22;3016;50.308;8.258;2023-01-23T01:32:44;0.80;1.00
5980;DHT22;3016;50.308;8.258;2023-01-23T01:35:45;0.80;1.00
5980;DHT22;3016;50.308;8.258;2023-01-23T01:38:46;0.80;1.00
5980;DHT22;3016;50.308;8.258;2023-01-23T01:41:47;0.80;1.00
5980;DHT22;3016;50.308;8.258;2023-01-23T01:44:56;0.80;1.00
5980;DHT22;3016;50.308;8.258;2023-01-23T01:47:59;0.90;1.00
5980;DHT22;3016;50.308;8.258;2023-01-23T01:51:02;0.90;1.00
5980;DHT22;3016;50.308;8.258;2023-01-23T01:54:22;0.90;1.00
5980;DHT22;3016;50.308;8.258;2023-01-23T01:57:34;0.90;1.00
5980;DHT22;3016;50.308;8.258;2023-01-23T02:00:36;0.90;1.00
5980;DHT22;3016;50.308;8.258;2023-01-23T02:03:37;0.90;1.00
5980;DHT22;3016;50.308;8.258;2023-01-23T02:06:38;0.90;1.00
5980;DHT22;3016;50.308;8.258;2023-01-23T02:09:39;0.90;1.00
5980;DHT22;3016;50.308;8.258;2023-01-23T02:12:43;0.80;1.00
5980;DHT22;3016;50.308;8.258;2023-01-23T02:15:45;0.80;1.00
5980;DHT22;3016;50.308;8.258;2023-01-23T02:18:49;0.80;1.00
5980;DHT22;3016;50.308;8.258;2023-01-23T02:22:09;0.80;1.00
5980;DHT22;3016;50.308;8.258;2023-01-23T02:25:27;0.70;1.00
5980;DHT22;3016;50.308;8.258;2023-01-23T02:28:42;0.70;1.00
5980;DHT22;3016;50.308;8.258;2023-01-23T02:31:45;0.70;1.00
5980;DHT22;3016;50.308;8.258;2023-01-23T02:34:46;0.70;1.00
5980;DHT22;3016;50.308;8.258;2023-01-23T02:37:48;0.70;1.00
5980;DHT22;3016;50.308;8.258;2023-01-23T02:40:53;0.70;1.00
5980;DHT22;3016;50.308;8.258;2023-01-23T02:43:56;0.70;1.00
5980;DHT22;3016;50.308;8.258;2023-01-23T02:47:02;0.70;1.00
5980;DHT22;3016;50.308;8.258;2023-01-23T02:50:05;0.70;1.00
5980;DHT22;3016;50.308;8.258;2023-01-23T02:53:06;0.70;1.00
5980;DHT22;3016;50.308;8.258;2023-01-23T02:56:07;0.60;1.00
5980;DHT22;3016;50.308;8.258;2023-01-23T02:59:08;0.50;1.00
5980;DHT22;3016;50.308;8.258;2023-01-23T03:02:27;0.50;1.00
5980;DHT22;3016;50.308;8.258;2023-01-23T03:05:28;0.40;1.00
5980;DHT22;3016;50.308;8.258;2023-01-23T03:08:29;0.40;1.00
5980;DHT22;3016;50.308;8.258;2023-01-23T03:11:37;0.50;1.00
5980;DHT22;3016;50.308;8.258;2023-01-23T03:14:39;0.50;1.10
5980;DHT22;3016;50.308;8.258;2023-01-23T03:17:40;0.50;2.30
5980;DHT22;3016;50.308;8.258;2023-01-23T03:20:40;0.60;2.50
5980;DHT22;3016;50.308;8.258;2023-01-23T03:23:41;0.60;2.00
5980;DHT22;3016;50.308;8.258;2023-01-23T03:26:45;0.70;1.00
5980;DHT22;3016;50.308;8.258;2023-01-23T03:29:47;0.70;1.00
5980;DHT22;3016;50.308;8.258;2023-01-23T03:33:06;0.80;1.00
5980;DHT22;3016;50.308;8.258;2023-01-23T03:36:07;0.80;1.00
5980;DHT22;3016;50.308;8.258;2023-01-23T03:39:07;0.80;1.00
5980;DHT22;3016;50.308;8.258;2023-01-23T03:42:27;0.90;1.00
5980;DHT22;3016;50.308;8.258;2023-01-23T03:45:27;0.90;1.00
5980;DHT22;3016;50.308;8.258;2023-01-23T03:48:28;0.80;1.00
5980;DHT22;3016;50.308;8.258;2023-01-23T03:51:29;0.90;1.00
5980;DHT22;3016;50.308;8.258;2023-01-23T03:54:29;0.90;1.00
5980;DHT22;3016;50.308;8.258;2023-01-23T03:57:30;0.90;1.00
5980;DHT22;3016;50.308;8.258;2023-01-23T04:00:31;0.90;1.00
5980;DHT22;3016;50.308;8.258;2023-01-23T04:03:32;0.90;1.00
5980;DHT22;3016;50.308;8.258;2023-01-23T04:06:32;0.90;1.00
5980;DHT22;3016;50.308;8.258;2023-01-23T04:09:33;0.90;1.00
5980;DHT22;3016;50.308;8.258;2023-01-23T04:12:34;0.90;1.00
5980;DHT22;3016;50.308;8.258;2023-01-23T04:15:35;0.90;1.00
5980;DHT22;3016;50.308;8.258;2023-01-23T04:18:35;0.90;1.00
5980;DHT22;3016;50.308;8.258;2023-01-23T04:21:36;0.90;1.00
5980;DHT22;3016;50.308;8.258;2023-01-23T04:24:37;0.90;1.00
5980;DHT22;3016;50.308;8.258;2023-01-23T04:27:37;0.90;1.00
5980;DHT22;3016;50.308;8.258;2023-01-23T04:30:38;0.90;1.00
5980;DHT22;3016;50.308;8.258;2023-01-23T04:33:39;0.80;1.00
5980;DHT22;3016;50.308;8.258;2023-01-23T04:36:39;0.70;1.00
5980;DHT22;3016;50.308;8.258;2023-01-23T04:39:40;0.60;1.00
5980;DHT22;3016;50.308;8.258;2023-01-23T04:42:41;0.50;1.00
5980;DHT22;3016;50.308;8.258;2023-01-23T04:45:41;0.40;1.00
5980;DHT22;3016;50.308;8.258;2023-01-23T04:48:43;0.30;1.00
5980;DHT22;3016;50.308;8.258;2023-01-23T04:51:45;0.20;1.00
5980;DHT22;3016;50.308;8.258;2023-01-23T04:54:47;0.20;1.00
5980;DHT22;3016;50.308;8.258;2023-01-23T04:57:48;0.10;1.00
5980;DHT22;3016;50.308;8.258;2023-01-23T05:00:48;0.10;1.00
5980;DHT22;3016;50.308;8.258;2023-01-23T05:03:51;0.00;1.00
5980;DHT22;3016;50.308;8.258;2023-01-23T05:06:52;0.10;1.00
5980;DHT22;3016;50.308;8.258;2023-01-23T05:09:53;0.10;1.00
5980;DHT22;3016;50.308;8.258;2023-01-23T05:12:54;0.10;1.00
5980;DHT22;3016;50.308;8.258;2023-01-23T05:15:56;0.10;1.00
5980;DHT22;3016;50.308;8.258;2023-01-23T05:18:57;0.20;1.00
5980;DHT22;3016;50.308;8.258;2023-01-23T05:21:58;0.30;1.00
5980;DHT22;3016;50.308;8.258;2023-01-23T05:24:58;0.30;1.00
5980;DHT22;3016;50.308;8.258;2023-01-23T05:27:59;0.40;1.00
5980;DHT22;3016;50.308;8.258;2023-01-23T05:31:00;0.40;1.00
5980;DHT22;3016;50.308;8.258;2023-01-23T05:34:01;0.40;1.00
5980;DHT22;3016;50.308;8.258;2023-01-23T05:37:01;0.50;1.00
5980;DHT22;3016;50.308;8.258;2023-01-23T05:40:03;0.50;1.00
5980;DHT22;3016;50.308;8.258;2023-01-23T05:43:06;0.60;1.00
5980;DHT22;3016;50.308;8.258;2023-01-23T05:46:07;0.70;1.00
5980;DHT22;3016;50.308;8.258;2023-01-23T05:49:07;0.70;1.00
5980;DHT22;3016;50.308;8.258;2023-01-23T05:52:08;0.80;1.00
5980;DHT22;3016;50.308;8.258;2023-01-23T05:55:09;0.80;1.00
5980;DHT22;3016;50.308;8.258;2023-01-23T05:58:10;0.80;1.00
5980;DHT22;3016;50.308;8.258;2023-01-23T06:01:12;0.80;1.00
5980;DHT22;3016;50.308;8.258;2023-01-23T06:04:14;0.80;1.00
5980;DHT22;3016;50.308;8.258;2023-01-23T06:07:17;0.80;1.00
5980;DHT22;3016;50.308;8.258;2023-01-23T06:10:18;0.80;1.00
5980;DHT22;3016;50.308;8.258;2023-01-23T06:13:19;0.80;1.00
5980;DHT22;3016;50.308;8.258;2023-01-23T06:16:20;0.80;1.00
5980;DHT22;3016;50.308;8.258;2023-01-23T06:19:20;0.80;1.00
5980;DHT22;3016;50.308;8.258;2023-01-23T06:22:21;0.80;1.00
5980;DHT22;3016;50.308;8.258;2023-01-23T06:25:22;0.80;1.00
5980;DHT22;3016;50.308;8.258;2023-01-23T06:28:22;0.80;1.00
5980;DHT22;3016;50.308;8.258;2023-01-23T06:31:23;0.80;1.00
5980;DHT22;3016;50.308;8.258;2023-01-23T06:34:24;0.80;1.00
5980;DHT22;3016;50.308;8.258;2023-01-23T06:37:24;0.80;1.00
5980;DHT22;3016;50.308;8.258;2023-01-23T06:40:25;0.80;1.00
5980;DHT22;3016;50.308;8.258;2023-01-23T06:43:26;0.80;1.00
5980;DHT22;3016;50.308;8.258;2023-01-23T06:46:27;0.80;1.00
5980;DHT22;3016;50.308;8.258;2023-01-23T06:49:27;0.80;1.00
5980;DHT22;3016;50.308;8.258;2023-01-23T06:52:29;0.80;1.00
5980;DHT22;3016;50.308;8.258;2023-01-23T06:55:30;0.90;1.00
5980;DHT22;3016;50.308;8.258;2023-01-23T06:58:32;0.80;1.00
5980;DHT22;3016;50.308;8.258;2023-01-23T07:01:33;0.90;1.00
5980;DHT22;3016;50.308;8.258;2023-01-23T07:04:34;0.90;1.00
5980;DHT22;3016;50.308;8.258;2023-01-23T07:07:35;0.90;1.00
5980;DHT22;3016;50.308;8.258;2023-01-23T07:10:36;0.90;1.00
5980;DHT22;3016;50.308;8.258;2023-01-23T07:13:37;0.90;1.00
5980;DHT22;3016;50.308;8.258;2023-01-23T07:16:38;0.90;1.00
5980;DHT22;3016;50.308;8.258;2023-01-23T07:19:38;0.90;1.00
5980;DHT22;3016;50.308;8.258;2023-01-23T07:22:39;0.90;1.00
5980;DHT22;3016;50.308;8.258;2023-01-23T07:25:40;0.90;1.00
5980;DHT22;3016;50.308;8.258;2023-01-23T07:28:40;0.90;1.00
5980;DHT22;3016;50.308;8.258;2023-01-23T07:31:41;0.90;1.00
5980;DHT22;3016;50.308;8.258;2023-01-23T07:34:42;0.90;1.00
5980;DHT22;3016;50.308;8.258;2023-01-23T07:37:43;0.90;1.00
5980;DHT22;3016;50.308;8.258;2023-01-23T07:40:43;0.90;1.00
5980;DHT22;3016;50.308;8.258;2023-01-23T07:43:44;0.90;1.00
5980;DHT22;3016;50.308;8.258;2023-01-23T07:46:46;0.90;1.00
5980;DHT22;3016;50.308;8.258;2023-01-23T07:49:47;0.90;1.00
5980;DHT22;3016;50.308;8.258;2023-01-23T07:52:48;0.90;1.00
5980;DHT22;3016;50.308;8.258;2023-01-23T07:55:49;1.00;1.00
5980;DHT22;3016;50.308;8.258;2023-01-23T07:58:49;1.00;1.00
5980;DHT22;3016;50.308;8.258;2023-01-23T08:01:50;1.00;1.00
5980;DHT22;3016;50.308;8.258;2023-01-23T08:04:51;1.00;1.00
5980;DHT22;3016;50.308;8.258;2023-01-23T08:07:52;1.00;1.00
5980;DHT22;3016;50.308;8.258;2023-01-23T08:10:53;1.10;1.00
5980;DHT22;3016;50.308;8.258;2023-01-23T08:13:54;1.10;1.00
5980;DHT22;3016;50.308;8.258;2023-01-23T08:16:54;1.10;1.00
5980;DHT22;3016;50.308;8.258;2023-01-23T08:19:55;1.20;1.00
5980;DHT22;3016;50.308;8.258;2023-01-23T08:22:56;1.20;1.00
5980;DHT22;3016;50.308;8.258;2023-01-23T08:26:00;1.20;1.00
5980;DHT22;3016;50.308;8.258;2023-01-23T08:29:03;1.20;1.00
5980;DHT22;3016;50.308;8.258;2023-01-23T08:32:04;1.30;1.00
5980;DHT22;3016;50.308;8.258;2023-01-23T08:35:05;1.30;1.00
5980;DHT22;3016;50.308;8.258;2023-01-23T08:38:06;1.30;1.00
5980;DHT22;3016;50.308;8.258;2023-01-23T08:41:09;1.40;1.00
5980;DHT22;3016;50.308;8.258;2023-01-23T08:44:11;1.40;1.00
5980;DHT22;3016;50.308;8.258;2023-01-23T08:47:12;1.40;1.00
5980;DHT22;3016;50.308;8.258;2023-01-23T08:50:13;1.50;1.00
5980;DHT22;3016;50.308;8.258;2023-01-23T08:53:14;1.50;1.00
5980;DHT22;3016;50.308;8.258;2023-01-23T08:56:17;1.40;1.00
5980;DHT22;3016;50.308;8.258;2023-01-23T08:59:20;1.50;1.00
5980;DHT22;3016;50.308;8.258;2023-01-23T09:02:21;1.50;1.00
5980;DHT22;3016;50.308;8.258;2023-01-23T09:05:25;1.50;1.00
5980;DHT22;3016;50.308;8.258;2023-01-23T09:08:27;1.60;1.00
5980;DHT22;3016;50.308;8.258;2023-01-23T09:11:27;1.70;1.00
5980;DHT22;3016;50.308;8.258;2023-01-23T09:14:28;1.70;1.00
5980;DHT22;3016;50.308;8.258;2023-01-23T09:17:29;1.80;1.00
5980;DHT22;3016;50.308;8.258;2023-01-23T09:20:29;1.80;1.00
5980;DHT22;3016;50.308;8.258;2023-01-23T09:23:30;1.80;1.00
5980;DHT22;3016;50.308;8.258;2023-01-23T09:26:31;1.90;1.00
5980;DHT22;3016;50.308;8.258;2023-01-23T09:29:31;1.90;1.00
5980;DHT22;3016;50.308;8.258;2023-01-23T09:32:32;1.90;1.00
5980;DHT22;3016;50.308;8.258;2023-01-23T09:35:33;2.00;1.00
5980;DHT22;3016;50.308;8.258;2023-01-23T09:38:34;2.00;1.00
5980;DHT22;3016;50.308;8.258;2023-01-23T09:41:34;2.00;1.00
5980;DHT22;3016;50.308;8.258;2023-01-23T09:44:39;2.00;1.00
5980;DHT22;3016;50.308;8.258;2023-01-23T09:47:54;2.10;1.00
5980;DHT22;3016;50.308;8.258;2023-01-23T09:51:04;2.20;1.00
5980;DHT22;3016;50.308;8.258;2023-01-23T09:57:50;2.20;1.00
5980;DHT22;3016;50.308;8.258;2023-01-23T10:00:54;2.10;1.00
5980;DHT22;3016;50.308;8.258;2023-01-23T10:03:58;2.10;1.00
5980;DHT22;3016;50.308;8.258;2023-01-23T10:07:16;2.00;1.00
5980;DHT22;3016;50.308;8.258;2023-01-23T10:10:42;2.00;1.00
5980;DHT22;3016;50.308;8.258;2023-01-23T10:14:18;2.10;1.00
5980;DHT22;3016;50.308;8.258;2023-01-23T10:21:38;1.90;1.00
5980;DHT22;3016;50.308;8.258;2023-01-23T10:24:50;2.00;1.00
5980;DHT22;3016;50.308;8.258;2023-01-23T10:27:57;1.90;1.00
5980;DHT22;3016;50.308;8.258;2023-01-23T10:34:44;1.90;1.00
5980;DHT22;3016;50.308;8.258;2023-01-23T10:38:06;1.90;1.00
5980;DHT22;3016;50.308;8.258;2023-01-23T10:41:26;1.90;1.00
5980;DHT22;3016;50.308;8.258;2023-01-23T10:44:27;2.00;1.00
5980;DHT22;3016;50.308;8.258;2023-01-23T10:47:41;2.10;1.00
5980;DHT22;3016;50.308;8.258;2023-01-23T10:50:43;2.20;1.00
5980;DHT22;3016;50.308;8.258;2023-01-23T10:53:44;2.30;1.00
5980;DHT22;3016;50.308;8.258;2023-01-23T10:56:56;2.30;1.00
5980;DHT22;3016;50.308;8.258;2023-01-23T11:00:38;2.30;1.00
5980;DHT22;3016;50.308;8.258;2023-01-23T11:03:44;2.40;1.00
5980;DHT22;3016;50.308;8.258;2023-01-23T11:07:06;2.50;1.00
5980;DHT22;3016;50.308;8.258;2023-01-23T11:13:25;2.40;1.00
5980;DHT22;3016;50.308;8.258;2023-01-23T11:16:27;2.40;1.00
5980;DHT22;3016;50.308;8.258;2023-01-23T11:19:30;2.50;1.00
5980;DHT22;3016;50.308;8.258;2023-01-23T11:22:36;2.60;1.00
5980;DHT22;3016;50.308;8.258;2023-01-23T11:25:43;2.70;1.00
5980;DHT22;3016;50.308;8.258;2023-01-23T11:28:47;2.70;1.00
5980;DHT22;3016;50.308;8.258;2023-01-23T11:31:54;2.80;1.00
5980;DHT22;3016;50.308;8.258;2023-01-23T11:35:09;2.90;1.00
5980;DHT22;3016;50.308;8.258;2023-01-23T11:38:18;3.00;1.00
5980;DHT22;3016;50.308;8.258;2023-01-23T11:41:27;3.10;1.00
5980;DHT22;3016;50.308;8.258;2023-01-23T11:44:31;3.10;1.00
5980;DHT22;3016;50.308;8.258;2023-01-23T11:48:02;3.20;1.00
5980;DHT22;3016;50.308;8.258;2023-01-23T11:51:35;3.40;1.00
5980;DHT22;3016;50.308;8.258;2023-01-23T11:58:28;3.50;1.00
5980;DHT22;3016;50.308;8.258;2023-01-23T12:08:49;3.60;1.00
5980;DHT22;3016;50.308;8.258;2023-01-23T12:12:12;3.60;1.00
5980;DHT22;3016;50.308;8.258;2023-01-23T12:15:37;3.70;1.00
5980;DHT22;3016;50.308;8.258;2023-01-23T12:29:23;4.30;1.00
5980;DHT22;3016;50.308;8.258;2023-01-23T12:43:06;4.60;1.00
5980;DHT22;3016;50.308;8.258;2023-01-23T12:46:19;4.30;1.00
5980;DHT22;3016;50.308;8.258;2023-01-23T12:49:38;4.00;1.00
5980;DHT22;3016;50.308;8.258;2023-01-23T12:52:55;3.90;1.00
5980;DHT22;3016;50.308;8.258;2023-01-23T12:56:19;4.00;1.00
5980;DHT22;3016;50.308;8.258;2023-01-23T13:04:03;4.20;1.00
5980;DHT22;3016;50.308;8.258;2023-01-23T13:10:28;4.00;1.00
5980;DHT22;3016;50.308;8.258;2023-01-23T13:13:51;3.90;1.00
5980;DHT22;3016;50.308;8.258;2023-01-23T13:16:52;4.10;1.00
5980;DHT22;3016;50.308;8.258;2023-01-23T13:20:28;4.10;1.00
5980;DHT22;3016;50.308;8.258;2023-01-23T13:23:46;4.20;1.00
5980;DHT22;3016;50.308;8.258;2023-01-23T13:26:47;4.30;1.00
5980;DHT22;3016;50.308;8.258;2023-01-23T13:29:49;4.40;1.00
5980;DHT22;3016;50.308;8.258;2023-01-23T13:32:51;4.50;1.00
5980;DHT22;3016;50.308;8.258;2023-01-23T13:35:53;4.30;1.00
5980;DHT22;3016;50.308;8.258;2023-01-23T13:39:25;4.20;1.00
5980;DHT22;3016;50.308;8.258;2023-01-23T13:45:28;3.90;1.00
5980;DHT22;3016;50.308;8.258;2023-01-23T13:48:44;3.90;1.00
5980;DHT22;3016;50.308;8.258;2023-01-23T13:52:56;3.90;1.00
5980;DHT22;3016;50.308;8.258;2023-01-23T13:56:20;3.70;1.00
5980;DHT22;3016;50.308;8.258;2023-01-23T13:59:43;3.60;1.00
5980;DHT22;3016;50.308;8.258;2023-01-23T14:03:45;3.60;1.00
5980;DHT22;3016;50.308;8.258;2023-01-23T14:06:39;3.50;1.00
5980;DHT22;3016;50.308;8.258;2023-01-23T14:09:41;3.40;1.00
5980;DHT22;3016;50.308;8.258;2023-01-23T14:12:42;3.40;1.00
5980;DHT22;3016;50.308;8.258;2023-01-23T14:15:49;3.40;1.00
5980;DHT22;3016;50.308;8.258;2023-01-23T14:19:24;3.20;1.00
5980;DHT22;3016;50.308;8.258;2023-01-23T14:22:30;3.20;1.00
5980;DHT22;3016;50.308;8.258;2023-01-23T14:25:32;3.10;1.00
5980;DHT22;3016;50.308;8.258;2023-01-23T14:28:32;3.10;1.00
5980;DHT22;3016;50.308;8.258;2023-01-23T14:31:35;3.00;1.00
5980;DHT22;3016;50.308;8.258;2023-01-23T14:34:38;3.10;1.00
5980;DHT22;3016;50.308;8.258;2023-01-23T14:37:39;3.00;1.00
5980;DHT22;3016;50.308;8.258;2023-01-23T14:40:41;3.00;1.00
5980;DHT22;3016;50.308;8.258;2023-01-23T14:43:45;3.00;1.00
5980;DHT22;3016;50.308;8.258;2023-01-23T14:46:51;2.90;1.00
5980;DHT22;3016;50.308;8.258;2023-01-23T14:49:53;2.90;1.00
5980;DHT22;3016;50.308;8.258;2023-01-23T14:53:06;2.80;1.00
5980;DHT22;3016;50.308;8.258;2023-01-23T14:56:12;2.80;1.00
5980;DHT22;3016;50.308;8.258;2023-01-23T14:59:24;2.80;1.00
5980;DHT22;3016;50.308;8.258;2023-01-23T15:05:34;2.70;1.00
5980;DHT22;3016;50.308;8.258;2023-01-23T15:08:38;2.60;1.00
5980;DHT22;3016;50.308;8.258;2023-01-23T15:11:39;2.60;1.00
5980;DHT22;3016;50.308;8.258;2023-01-23T15:14:40;2.50;1.00
5980;DHT22;3016;50.308;8.258;2023-01-23T15:17:44;2.50;1.00
5980;DHT22;3016;50.308;8.258;2023-01-23T15:21:09;2.40;1.00
5980;DHT22;3016;50.308;8.258;2023-01-23T15:24:26;2.40;1.00
5980;DHT22;3016;50.308;8.258;2023-01-23T15:27:32;2.40;1.00
5980;DHT22;3016;50.308;8.258;2023-01-23T15:33:35;2.40;1.00
5980;DHT22;3016;50.308;8.258;2023-01-23T15:36:55;2.40;1.00
5980;DHT22;3016;50.308;8.258;2023-01-23T15:40:18;2.30;1.00
5980;DHT22;3016;50.308;8.258;2023-01-23T15:43:19;2.30;1.00
5980;DHT22;3016;50.308;8.258;2023-01-23T15:46:20;2.30;1.00
5980;DHT22;3016;50.308;8.258;2023-01-23T15:49:21;2.30;1.00
5980;DHT22;3016;50.308;8.258;2023-01-23T15:52:25;2.30;1.00
5980;DHT22;3016;50.308;8.258;2023-01-23T15:55:28;2.30;1.00
5980;DHT22;3016;50.308;8.258;2023-01-23T15:58:29;2.20;1.00
5980;DHT22;3016;50.308;8.258;2023-01-23T16:01:29;2.20;1.00
5980;DHT22;3016;50.308;8.258;2023-01-23T16:04:30;2.20;1.00
5980;DHT22;3016;50.308;8.258;2023-01-23T16:07:34;2.20;1.00
5980;DHT22;3016;50.308;8.258;2023-01-23T16:10:36;2.20;1.00
5980;DHT22;3016;50.308;8.258;2023-01-23T16:13:38;2.20;1.00
5980;DHT22;3016;50.308;8.258;2023-01-23T16:16:39;2.20;1.00
5980;DHT22;3016;50.308;8.258;2023-01-23T16:19:39;2.10;1.00
5980;DHT22;3016;50.308;8.258;2023-01-23T16:22:41;2.10;1.00
5980;DHT22;3016;50.308;8.258;2023-01-23T16:25:42;2.10;1.00
5980;DHT22;3016;50.308;8.258;2023-01-23T16:28:43;2.10;1.00
5980;DHT22;3016;50.308;8.258;2023-01-23T16:31:44;2.10;1.00
5980;DHT22;3016;50.308;8.258;2023-01-23T16:34:44;2.10;1.00
5980;DHT22;3016;50.308;8.258;2023-01-23T16:37:47;2.10;1.00
5980;DHT22;3016;50.308;8.258;2023-01-23T16:40:51;2.10;1.00
5980;DHT22;3016;50.308;8.258;2023-01-23T16:43:52;2.10;1.00
5980;DHT22;3016;50.308;8.258;2023-01-23T16:46:53;2.20;1.00
5980;DHT22;3016;50.308;8.258;2023-01-23T16:49:53;2.10;1.00
5980;DHT22;3016;50.308;8.258;2023-01-23T16:53:00;2.20;1.00
5980;DHT22;3016;50.308;8.258;2023-01-23T16:56:05;2.20;1.00
5980;DHT22;3016;50.308;8.258;2023-01-23T16:59:11;2.20;1.00
5980;DHT22;3016;50.308;8.258;2023-01-23T17:02:21;2.20;1.00
5980;DHT22;3016;50.308;8.258;2023-01-23T17:05:25;2.20;1.00
5980;DHT22;3016;50.308;8.258;2023-01-23T17:08:26;2.20;1.00
5980;DHT22;3016;50.308;8.258;2023-01-23T17:11:36;2.20;1.00
5980;DHT22;3016;50.308;8.258;2023-01-23T17:14:40;2.20;1.00
5980;DHT22;3016;50.308;8.258;2023-01-23T17:17:41;2.20;1.00
5980;DHT22;3016;50.308;8.258;2023-01-23T17:20:44;2.20;1.00
5980;DHT22;3016;50.308;8.258;2023-01-23T17:23:45;2.20;1.00
5980;DHT22;3016;50.308;8.258;2023-01-23T17:26:46;2.30;1.00
5980;DHT22;3016;50.308;8.258;2023-01-23T17:29:46;2.20;1.00
5980;DHT22;3016;50.308;8.258;2023-01-23T17:32:54;2.20;1.00
5980;DHT22;3016;50.308;8.258;2023-01-23T17:35:57;2.20;1.00
5980;DHT22;3016;50.308;8.258;2023-01-23T17:38:59;2.20;1.00
5980;DHT22;3016;50.308;8.258;2023-01-23T17:41:59;2.20;1.00
5980;DHT22;3016;50.308;8.258;2023-01-23T17:45:00;2.20;1.00
5980;DHT22;3016;50.308;8.258;2023-01-23T17:48:01;2.20;1.00
5980;DHT22;3016;50.308;8.258;2023-01-23T17:51:01;2.20;1.00
5980;DHT22;3016;50.308;8.258;2023-01-23T17:54:02;2.20;1.00
5980;DHT22;3016;50.308;8.258;2023-01-23T17:57:03;2.20;1.00
5980;DHT22;3016;50.308;8.258;2023-01-23T18:00:04;2.20;1.00
5980;DHT22;3016;50.308;8.258;2023-01-23T18:03:12;2.20;1.00
5980;DHT22;3016;50.308;8.258;2023-01-23T18:06:13;2.20;1.00
5980;DHT22;3016;50.308;8.258;2023-01-23T18:09:14;2.20;1.00
5980;DHT22;3016;50.308;8.258;2023-01-23T18:12:29;2.20;1.00
5980;DHT22;3016;50.308;8.258;2023-01-23T18:19:25;2.20;1.00
5980;DHT22;3016;50.308;8.258;2023-01-23T18:22:27;2.20;1.00
5980;DHT22;3016;50.308;8.258;2023-01-23T18:25:28;2.20;1.00
5980;DHT22;3016;50.308;8.258;2023-01-23T18:28:40;2.20;1.00
5980;DHT22;3016;50.308;8.258;2023-01-23T18:36:04;2.10;1.00
5980;DHT22;3016;50.308;8.258;2023-01-23T18:39:34;2.10;1.00
5980;DHT22;3016;50.308;8.258;2023-01-23T18:43:34;2.10;1.00
5980;DHT22;3016;50.308;8.258;2023-01-23T18:46:37;2.00;1.00
5980;DHT22;3016;50.308;8.258;2023-01-23T18:49:38;2.00;1.00
5980;DHT22;3016;50.308;8.258;2023-01-23T18:53:15;2.00;1.00
5980;DHT22;3016;50.308;8.258;2023-01-23T19:03:16;2.10;1.00
5980;DHT22;3016;50.308;8.258;2023-01-23T19:06:26;2.00;1.00
5980;DHT22;3016;50.308;8.258;2023-01-23T19:09:32;2.10;1.00
5980;DHT22;3016;50.308;8.258;2023-01-23T19:12:39;2.10;1.00
5980;DHT22;3016;50.308;8.258;2023-01-23T19:16:10;2.10;1.00
5980;DHT22;3016;50.308;8.258;2023-01-23T19:19:29;2.10;1.00
5980;DHT22;3016;50.308;8.258;2023-01-23T19:22:48;2.10;1.00
5980;DHT22;3016;50.308;8.258;2023-01-23T19:25:54;2.10;1.00
5980;DHT22;3016;50.308;8.258;2023-01-23T19:28:56;2.10;1.00
5980;DHT22;3016;50.308;8.258;2023-01-23T19:31:58;2.10;1.00
5980;DHT22;3016;50.308;8.258;2023-01-23T19:34:59;2.00;1.00
5980;DHT22;3016;50.308;8.258;2023-01-23T19:37:59;2.00;1.00
5980;DHT22;3016;50.308;8.258;2023-01-23T19:41:00;2.10;1.00
5980;DHT22;3016;50.308;8.258;2023-01-23T19:44:01;2.00;1.00
5980;DHT22;3016;50.308;8.258;2023-01-23T19:47:04;2.10;1.00
5980;DHT22;3016;50.308;8.258;2023-01-23T19:50:06;2.10;1.00
5980;DHT22;3016;50.308;8.258;2023-01-23T19:53:11;2.10;1.00
5980;DHT22;3016;50.308;8.258;2023-01-23T19:56:15;2.10;1.00
5980;DHT22;3016;50.308;8.258;2023-01-23T19:59:17;2.10;1.00
5980;DHT22;3016;50.308;8.258;2023-01-23T20:02:19;2.10;1.00
5980;DHT22;3016;50.308;8.258;2023-01-23T20:05:21;2.10;1.00
5980;DHT22;3016;50.308;8.258;2023-01-23T20:08:22;2.20;1.00
5980;DHT22;3016;50.308;8.258;2023-01-23T20:11:22;2.10;1.00
5980;DHT22;3016;50.308;8.258;2023-01-23T20:14:23;2.10;1.00
5980;DHT22;3016;50.308;8.258;2023-01-23T20:17:25;2.10;1.00
5980;DHT22;3016;50.308;8.258;2023-01-23T20:20:25;2.00;1.00
5980;DHT22;3016;50.308;8.258;2023-01-23T20:23:26;2.00;1.00
5980;DHT22;3016;50.308;8.258;2023-01-23T20:26:28;2.00;1.00
5980;DHT22;3016;50.308;8.258;2023-01-23T20:29:29;2.10;1.00
5980;DHT22;3016;50.308;8.258;2023-01-23T20:32:31;2.00;1.00
5980;DHT22;3016;50.308;8.258;2023-01-23T20:35:31;2.00;1.00
5980;DHT22;3016;50.308;8.258;2023-01-23T20:38:32;2.00;1.00
5980;DHT22;3016;50.308;8.258;2023-01-23T20:41:33;2.00;1.00
5980;DHT22;3016;50.308;8.258;2023-01-23T20:44:34;2.00;1.00
5980;DHT22;3016;50.308;8.258;2023-01-23T20:47:35;2.00;1.00
5980;DHT22;3016;50.308;8.258;2023-01-23T20:50:36;2.00;1.00
5980;DHT22;3016;50.308;8.258;2023-01-23T20:53:36;2.00;1.00
5980;DHT22;3016;50.308;8.258;2023-01-23T20:56:39;2.00;1.00
5980;DHT22;3016;50.308;8.258;2023-01-23T20:59:40;2.00;1.00
5980;DHT22;3016;50.308;8.258;2023-01-23T21:02:40;2.00;1.00
5980;DHT22;3016;50.308;8.258;2023-01-23T21:05:41;2.00;1.00
5980;DHT22;3016;50.308;8.258;2023-01-23T21:08:43;2.00;1.00
5980;DHT22;3016;50.308;8.258;2023-01-23T21:11:44;2.00;1.00
5980;DHT22;3016;50.308;8.258;2023-01-23T21:14:45;2.00;1.00
5980;DHT22;3016;50.308;8.258;2023-01-23T21:17:45;2.00;1.00
5980;DHT22;3016;50.308;8.258;2023-01-23T21:20:46;2.00;1.00
5980;DHT22;3016;50.308;8.258;2023-01-23T21:23:48;2.00;1.00
5980;DHT22;3016;50.308;8.258;2023-01-23T21:26:49;2.00;1.00
5980;DHT22;3016;50.308;8.258;2023-01-23T21:29:50;2.00;1.00
5980;DHT22;3016;50.308;8.258;2023-01-23T21:32:50;2.00;1.00
5980;DHT22;3016;50.308;8.258;2023-01-23T21:35:53;2.00;1.00
5980;DHT22;3016;50.308;8.258;2023-01-23T21:38:54;2.00;1.00
5980;DHT22;3016;50.308;8.258;2023-01-23T21:41:55;2.00;1.00
5980;DHT22;3016;50.308;8.258;2023-01-23T21:44:56;2.00;1.00
5980;DHT22;3016;50.308;8.258;2023-01-23T21:47:57;1.90;1.00
5980;DHT22;3016;50.308;8.258;2023-01-23T21:51:07;1.90;1.00
5980;DHT22;3016;50.308;8.258;2023-01-23T21:54:09;1.90;1.00
5980;DHT22;3016;50.308;8.258;2023-01-23T21:57:10;1.90;1.00
5980;DHT22;3016;50.308;8.258;2023-01-23T22:00:11;1.90;1.00
5980;DHT22;3016;50.308;8.258;2023-01-23T22:03:33;1.90;1.00
5980;DHT22;3016;50.308;8.258;2023-01-23T22:06:36;1.90;1.00